Погода Вентурана неделю

Калифорния, США

01 - 07 сентября
  • 01сентября
    Сегодня
    +15°
    +24°
    Ясно и безоблачно
    ВремяПогодаТемператураВлажностьДавлениеВетер, м/сВероятность осадков
    02:00Ясно и безоблачно+17°C90 %760 мм0.5 м/с2 %
    05:00Ясно и безоблачно+17°C92 %760 мм0.1 м/с2 %
    08:00Ясно и безоблачно+18°C78 %760 мм0.3 м/с2 %
    11:00Ясно и безоблачно+22°C66 %761 мм2.4 м/с2 %
    14:00Ясно и безоблачно+23°C53 %761 мм2.8 м/с2 %
    17:00Ясно и безоблачно+22°C56 %759 мм2.9 м/с2 %
    20:00Ясно и безоблачно+18°C77 %759 мм2.5 м/с2 %
    23:00Ясно и безоблачно+17°C84 %760 мм1.0 м/с2 %
  • 02сентября
    Среда
    +16°
    +24°
    Ясно и безоблачно
    ВремяПогодаТемператураВлажностьДавлениеВетер, м/сВероятность осадков
    02:00Ясно и безоблачно+16°C86 %761 мм0.3 м/с2 %
    05:00Ясно и безоблачно+16°C77 %760 мм1.5 м/с2 %
    08:00Ясно и безоблачно+18°C65 %761 мм1.4 м/с2 %
    11:00Ясно и безоблачно+23°C59 %761 мм1.9 м/с2 %
    14:00Ясно и безоблачно+24°C63 %761 мм3.6 м/с2 %
    17:00Ясно и безоблачно+23°C67 %759 мм4.9 м/с2 %
    20:00Ясно и безоблачно+19°C81 %759 мм1.1 м/с2 %
    23:00Ясно и безоблачно+19°C84 %759 мм0.6 м/с2 %
  • 03сентября
    Четверг
    +16°
    +24°
    Ясно и безоблачно
    ВремяПогодаТемператураВлажностьДавлениеВетер, м/сВероятность осадков
    02:00Ясно и безоблачно+18°C86 %759 мм0.7 м/с2 %
    05:00Ясно и безоблачно+17°C83 %759 мм1.2 м/с2 %
    08:00Ясно и безоблачно+19°C73 %760 мм0.3 м/с2 %
    11:00Ясно и безоблачно+22°C72 %759 мм2.5 м/с2 %
    14:00Ясно и безоблачно+23°C67 %758 мм3.3 м/с2 %
    17:00Ясно и безоблачно+22°C73 %757 мм4.1 м/с2 %
    20:00Ясно и безоблачно+18°C85 %757 мм1.9 м/с2 %
    23:00Ясно и безоблачно+18°C88 %758 мм0.6 м/с2 %
  • 04сентября
    Пятница
    +16°
    +24°
    Ясно и безоблачно
    ВремяПогодаТемператураВлажностьДавлениеВетер, м/сВероятность осадков
    02:00Ясно и безоблачно+18°C87 %758 мм1.6 м/с2 %
    05:00Ясно и безоблачно+18°C75 %758 мм1.5 м/с2 %
    08:00Ясно и безоблачно+19°C72 %759 мм1.7 м/с2 %
    11:00Ясно и безоблачно+23°C68 %759 мм2.1 м/с2 %
    14:00Ясно и безоблачно+24°C69 %759 мм3.5 м/с2 %
    17:00Ясно и безоблачно+23°C69 %758 мм4.0 м/с2 %
    20:00Ясно и безоблачно+17°C87 %758 мм1.4 м/с2 %
    23:00Ясно и безоблачно+18°C78 %758 мм0.1 м/с2 %
  • 05сентября
    Суббота
    +18°
    +26°
    Ясно и безоблачно
    ВремяПогодаТемператураВлажностьДавлениеВетер, м/сВероятность осадков
    02:00Ясно и безоблачно+18°C78 %758 мм0.7 м/с2 %
    05:00Ясно и безоблачно+18°C71 %758 мм0.4 м/с2 %
    08:00Ясно и безоблачно+19°C64 %759 мм0.9 м/с4 %
    11:00Ясно и безоблачно+24°C56 %759 мм2.0 м/с7 %
    14:00Ясно и безоблачно+26°C59 %759 мм3.5 м/с13 %
    17:00Ясно и безоблачно+24°C64 %758 мм3.7 м/с16 %
    20:00Ясно и безоблачно+19°C82 %758 мм1.8 м/с14 %
    23:00Ясно и безоблачно+19°C87 %759 мм0.7 м/с16 %
  • 06сентября
    Воскресенье
    +17°
    +26°
    Ясно и безоблачно
    ВремяПогодаТемператураВлажностьДавлениеВетер, м/сВероятность осадков
    05:00Облачно с прояснениями+19°C91 %758 мм0.8 м/с31 %
    11:00Ясно и безоблачно+24°C63 %759 мм2.5 м/с27 %
    17:00Ясно и безоблачно+24°C52 %758 мм3.2 м/с27 %
    23:00Ясно и безоблачно+19°C71 %759 мм2.2 м/с20 %
  • 07сентября
    Понедельник
    +16°
    +27°
    Ясно и безоблачно
    ВремяПогодаТемператураВлажностьДавлениеВетер, м/сВероятность осадков
    05:00Ясно и безоблачно+18°C75 %758 мм1.7 м/с18 %
    11:00Ясно и безоблачно+26°C57 %759 мм2.7 м/с24 %
    17:00Ясно и безоблачно+25°C58 %757 мм3.8 м/с20 %
    23:00Ясно и безоблачно+19°C70 %758 мм1.7 м/с19 %
Мы используем cookies
Соглашаюсь